Time,TemperatureF,DewpointF,PressureIn,WindDirection,WindDirectionDegrees,WindSpeedMPH,WindSpeedGustMPH,Humidity,HourlyPrecipIn,Conditions,Clouds,dailyrainin,SolarRadiationWatts/m^2,SoftwareType,DateUTC
2013-06-28 00:03:00,72.6,57.9,29.88,NW,312,3.9,6.0,60,0.00,CLR,,0.00,0.0,WeatherDisplay:10.37,2013-06-28 05:03:00,
2013-06-28 00:08:00,72.4,58.2,29.88,WNW,302,5.2,7.0,61,0.00,CLR,,0.00,0.0,WeatherDisplay:10.37,2013-06-28 05:08:00,
2013-06-28 00:13:00,72.3,58.1,29.88,WNW,297,4.7,7.0,61,0.00,CLR,,0.00,0.0,WeatherDisplay:10.37,2013-06-28 05:13:00,
2013-06-28 00:18:00,72.1,57.9,29.88,NW,323,3.2,6.9,61,0.00,CLR,,0.00,0.0,WeatherDisplay:10.37,2013-06-28 05:18:00,
2013-06-28 00:23:00,71.9,58.2,29.88,WNW,295,2.9,5.0,62,0.00,CLR,,0.00,0.0,WeatherDisplay:10.37,2013-06-28 05:23:00,
2013-06-28 00:28:00,71.7,58.4,29.88,NW,304,4.0,8.0,63,0.00,CLR,,0.00,0.0,WeatherDisplay:10.37,2013-06-28 05:28:00,
2013-06-28 00:33:00,71.6,58.3,29.88,NW,316,4.9,7.0,63,0.00,CLR,,0.00,0.0,WeatherDisplay:10.37,2013-06-28 05:33:00,
2013-06-28 00:38:00,71.5,58.2,29.88,WNW,300,4.1,6.0,63,0.00,CLR,,0.00,0.0,WeatherDisplay:10.37,2013-06-28 05:38:00,
2013-06-28 00:43:00,71.4,58.1,29.88,NW,316,2.5,5.8,63,0.00,CLR,,0.00,0.0,WeatherDisplay:10.37,2013-06-28 05:43:00,
2013-06-28 00:48:00,71.3,58.1,29.89,WNW,299,4.3,6.0,63,0.00,CLR,,0.00,0.0,WeatherDisplay:10.37,2013-06-28 05:48:00,
2013-06-28 00:53:00,71.3,58.1,29.89,WNW,301,5.5,11.5,63,0.00,CLR,,0.00,0.0,WeatherDisplay:10.37,2013-06-28 05:53:00,
2013-06-28 00:58:00,71.3,58.1,29.89,NW,306,3.3,8.1,63,0.00,CLR,,0.00,0.0,WeatherDisplay:10.37,2013-06-28 05:58:00,
2013-06-28 01:03:00,71.2,58.4,29.88,NW,322,3.1,6.9,64,0.00,CLR,,0.00,0.0,WeatherDisplay:10.37,2013-06-28 06:03:00,
2013-06-28 01:08:00,71.1,58.3,29.88,WNW,302,4.1,8.1,64,0.00,CLR,,0.00,0.0,WeatherDisplay:10.37,2013-06-28 06:08:00,
2013-06-28 01:13:00,71.0,58.2,29.88,NW,322,2.6,5.0,64,0.00,CLR,,0.00,0.0,WeatherDisplay:10.37,2013-06-28 06:13:00,
2013-06-28 01:18:00,70.9,58.5,29.88,NW,311,4.0,6.0,65,0.00,CLR,,0.00,0.0,WeatherDisplay:10.37,2013-06-28 06:18:00,
2013-06-28 01:23:00,70.8,58.4,29.89,WNW,288,5.2,9.2,65,0.00,CLR,,0.00,0.0,WeatherDisplay:10.37,2013-06-28 06:23:00,
2013-06-28 01:28:00,70.6,58.3,29.89,NW,316,5.2,10.0,65,0.00,CLR,,0.00,0.0,WeatherDisplay:10.37,2013-06-28 06:28:00,
2013-06-28 01:33:00,70.5,58.2,29.88,West,281,4.8,7.0,65,0.00,CLR,,0.00,0.0,WeatherDisplay:10.37,2013-06-28 06:33:00,
2013-06-28 01:38:00,70.4,58.5,29.88,NW,307,3.7,5.8,66,0.00,CLR,,0.00,0.0,WeatherDisplay:10.37,2013-06-28 06:38:00,
2013-06-28 01:43:00,70.1,58.2,29.88,WNW,295,5.7,9.2,66,0.00,CLR,,0.00,0.0,WeatherDisplay:10.37,2013-06-28 06:43:00,
2013-06-28 01:48:00,70.0,58.5,29.88,WNW,290,5.2,8.1,67,0.00,CLR,,0.00,0.0,WeatherDisplay:10.37,2013-06-28 06:48:00,
2013-06-28 01:53:00,69.8,58.3,29.88,NW,306,4.2,7.0,67,0.00,CLR,,0.00,0.0,WeatherDisplay:10.37,2013-06-28 06:53:00,
2013-06-28 01:58:00,69.6,58.6,29.88,NW,307,2.6,5.8,68,0.00,CLR,,0.00,0.0,WeatherDisplay:10.37,2013-06-28 06:58:00,
2013-06-28 02:03:00,69.4,58.4,29.88,WNW,291,4.0,6.0,68,0.00,CLR,,0.00,0.0,WeatherDisplay:10.37,2013-06-28 07:03:00,
2013-06-28 02:08:00,69.2,58.6,29.88,WNW,298,2.3,4.0,69,0.00,CLR,,0.00,0.0,WeatherDisplay:10.37,2013-06-28 07:08:00,
2013-06-28 02:13:00,69.0,58.4,29.88,WNW,298,4.0,6.0,69,0.00,CLR,,0.00,0.0,WeatherDisplay:10.37,2013-06-28 07:13:00,
2013-06-28 02:18:00,68.9,58.3,29.88,WNW,284,2.3,3.5,69,0.00,CLR,,0.00,0.0,WeatherDisplay:10.37,2013-06-28 07:18:00,
2013-06-28 02:23:00,68.7,58.5,29.88,WNW,296,3.2,5.0,70,0.00,CLR,,0.00,0.0,WeatherDisplay:10.37,2013-06-28 07:23:00,
2013-06-28 02:28:00,68.6,58.4,29.87,NW,307,4.6,9.2,70,0.00,CLR,,0.00,0.0,WeatherDisplay:10.37,2013-06-28 07:28:00,
2013-06-28 02:33:00,68.6,58.4,29.87,WNW,303,4.7,6.0,70,0.00,CLR,,0.00,0.0,WeatherDisplay:10.37,2013-06-28 07:33:00,
2013-06-28 02:38:00,68.6,58.4,29.88,WNW,288,6.4,9.0,70,0.00,CLR,,0.00,0.0,WeatherDisplay:10.37,2013-06-28 07:38:00,
2013-06-28 02:43:00,68.6,58.4,29.88,WNW,291,4.5,8.1,70,0.00,CLR,,0.00,0.0,WeatherDisplay:10.37,2013-06-28 07:43:00,
2013-06-28 02:48:00,68.7,58.5,29.88,WNW,298,4.3,7.0,70,0.00,CLR,,0.00,0.0,WeatherDisplay:10.37,2013-06-28 07:48:00,
2013-06-28 02:53:00,68.7,58.5,29.88,WNW,286,3.8,8.1,70,0.00,CLR,,0.00,0.0,WeatherDisplay:10.37,2013-06-28 07:53:00,
2013-06-28 02:58:00,68.6,58.4,29.88,WNW,286,5.7,9.2,70,0.00,CLR,,0.00,0.0,WeatherDisplay:10.37,2013-06-28 07:58:00,
2013-06-28 03:03:00,68.6,58.4,29.88,WNW,289,5.7,9.0,70,0.00,CLR,,0.00,0.0,WeatherDisplay:10.37,2013-06-28 08:03:00,
2013-06-28 03:08:00,68.6,58.4,29.87,WNW,290,3.9,6.0,70,0.00,CLR,,0.00,0.0,WeatherDisplay:10.37,2013-06-28 08:08:00,
2013-06-28 03:13:00,68.6,58.8,29.88,West,273,3.2,6.0,71,0.00,CLR,,0.00,0.0,WeatherDisplay:10.37,2013-06-28 08:13:00,
2013-06-28 03:18:00,68.5,58.7,29.88,WNW,291,6.9,11.0,71,0.00,CLR,,0.00,0.0,WeatherDisplay:10.37,2013-06-28 08:18:00,
2013-06-28 03:23:00,68.5,58.7,29.88,West,261,4.8,10.4,71,0.00,CLR,,0.00,0.0,WeatherDisplay:10.37,2013-06-28 08:23:00,
2013-06-28 03:28:00,68.5,58.3,29.88,WNW,286,5.4,8.1,70,0.00,CLR,,0.00,0.0,WeatherDisplay:10.37,2013-06-28 08:28:00,
2013-06-28 03:33:00,68.5,58.3,29.87,WNW,298,5.6,9.2,70,0.00,CLR,,0.00,0.0,WeatherDisplay:10.37,2013-06-28 08:33:00,
2013-06-28 03:38:00,68.4,58.2,29.87,WNW,286,6.6,9.2,70,0.00,CLR,,0.00,0.0,WeatherDisplay:10.37,2013-06-28 08:38:00,
2013-06-28 03:43:00,68.4,58.2,29.87,WNW,290,4.0,6.0,70,0.00,CLR,,0.00,0.0,WeatherDisplay:10.37,2013-06-28 08:43:00,
2013-06-28 03:48:00,68.4,58.2,29.87,WNW,294,6.5,10.0,70,0.00,CLR,,0.00,0.0,WeatherDisplay:10.37,2013-06-28 08:48:00,
2013-06-28 03:53:00,68.4,57.8,29.87,WNW,290,6.7,11.5,69,0.00,CLR,,0.00,0.0,WeatherDisplay:10.37,2013-06-28 08:53:00,
2013-06-28 03:58:00,68.4,57.8,29.87,West,279,3.5,5.8,69,0.00,CLR,,0.00,0.0,WeatherDisplay:10.37,2013-06-28 08:58:00,
2013-06-28 04:03:00,68.4,57.8,29.87,WNW,297,10.6,15.0,69,0.00,SCT,,0.00,0.0,WeatherDisplay:10.37,2013-06-28 09:03:00,
2013-06-28 04:08:00,68.4,57.8,29.87,WNW,288,5.5,8.1,69,0.00,SCT,,0.00,0.0,WeatherDisplay:10.37,2013-06-28 09:08:00,
2013-06-28 04:13:00,68.3,58.1,29.87,West,267,7.9,11.5,70,0.00,SCT,,0.00,0.0,WeatherDisplay:10.37,2013-06-28 09:13:00,
2013-06-28 04:18:00,68.1,57.9,29.87,NW,307,5.8,10.4,70,0.00,SCT,,0.00,0.0,WeatherDisplay:10.37,2013-06-28 09:18:00,
2013-06-28 04:23:00,67.8,58.1,29.87,WNW,293,3.9,11.5,71,0.00,SCT,,0.00,0.0,WeatherDisplay:10.37,2013-06-28 09:23:00,
2013-06-28 04:28:00,67.7,58.0,29.87,West,268,4.9,8.1,71,0.00,SCT,,0.00,0.0,WeatherDisplay:10.37,2013-06-28 09:28:00,
2013-06-28 04:33:00,67.6,58.2,29.87,WNW,290,6.4,10.4,72,0.00,SCT,,0.00,0.0,WeatherDisplay:10.37,2013-06-28 09:33:00,
2013-06-28 04:38:00,67.5,58.2,29.87,WNW,294,6.9,13.8,72,0.00,SCT,,0.00,0.0,WeatherDisplay:10.37,2013-06-28 09:38:00,
2013-06-28 04:43:00,67.4,58.1,29.87,WNW,294,8.9,14.0,72,0.00,SCT,,0.00,0.0,WeatherDisplay:10.37,2013-06-28 09:43:00,
2013-06-28 04:48:00,67.3,58.3,29.87,West,276,8.6,14.0,73,0.00,SCT,,0.00,0.0,WeatherDisplay:10.37,2013-06-28 09:48:00,
2013-06-28 04:53:00,67.2,58.6,29.87,West,264,5.9,10.4,74,0.00,SCT,,0.00,0.0,WeatherDisplay:10.37,2013-06-28 09:53:00,
2013-06-28 04:58:00,67.0,58.4,29.87,WNW,302,6.5,9.2,74,0.00,SCT,,0.00,0.0,WeatherDisplay:10.37,2013-06-28 09:58:00,
2013-06-28 05:03:00,66.9,58.7,29.87,West,281,8.6,15.0,75,0.00,CLR,,0.00,0.0,WeatherDisplay:10.37,2013-06-28 10:03:00,
2013-06-28 05:08:00,66.8,58.6,29.87,WNW,299,10.1,14.0,75,0.00,CLR,,0.00,0.0,WeatherDisplay:10.37,2013-06-28 10:08:00,
2013-06-28 05:13:00,66.7,58.9,29.86,WNW,301,7.2,13.0,76,0.00,CLR,,0.00,0.0,WeatherDisplay:10.37,2013-06-28 10:13:00,
2013-06-28 05:18:00,66.6,58.8,29.87,WNW,282,8.6,12.0,76,0.00,CLR,,0.00,0.0,WeatherDisplay:10.37,2013-06-28 10:18:00,
2013-06-28 05:23:00,66.5,59.1,29.87,WNW,297,5.1,11.5,77,0.00,CLR,,0.00,0.0,WeatherDisplay:10.37,2013-06-28 10:23:00,
2013-06-28 05:28:00,66.5,59.1,29.87,WNW,300,8.1,13.0,77,0.00,CLR,,0.00,0.0,WeatherDisplay:10.37,2013-06-28 10:28:00,
2013-06-28 05:33:00,66.4,59.0,29.87,WNW,295,5.1,13.8,77,0.00,CLR,,0.00,0.0,WeatherDisplay:10.37,2013-06-28 10:33:00,
2013-06-28 05:38:00,66.2,59.1,29.87,WNW,298,7.0,10.4,78,0.00,CLR,,0.00,5.0,WeatherDisplay:10.37,2013-06-28 10:38:00,
2013-06-28 05:43:00,66.1,59.0,29.87,NNW,329,5.5,9.2,78,0.00,CLR,,0.00,7.0,WeatherDisplay:10.37,2013-06-28 10:43:00,
2013-06-28 05:48:00,66.0,59.3,29.87,WNW,288,7.9,12.7,79,0.00,CLR,,0.00,9.0,WeatherDisplay:10.37,2013-06-28 10:48:00,
2013-06-28 05:53:00,65.9,59.2,29.87,NW,309,5.0,10.4,79,0.00,CLR,,0.00,12.0,WeatherDisplay:10.37,2013-06-28 10:53:00,
2013-06-28 05:58:00,65.8,59.1,29.87,NNW,341,6.7,10.4,79,0.00,CLR,,0.00,12.0,WeatherDisplay:10.37,2013-06-28 10:58:00,
2013-06-28 06:03:00,65.8,59.1,29.87,WNW,294,6.4,10.0,79,0.00,CLR,,0.00,14.0,WeatherDisplay:10.37,2013-06-28 11:03:00,
2013-06-28 06:08:00,65.8,59.5,29.87,NW,304,7.8,10.4,80,0.00,CLR,,0.00,16.0,WeatherDisplay:10.37,2013-06-28 11:08:00,
2013-06-28 06:13:00,65.9,59.6,29.87,NW,321,3.7,8.1,80,0.00,CLR,,0.00,18.0,WeatherDisplay:10.37,2013-06-28 11:13:00,
2013-06-28 06:18:00,66.0,59.7,29.87,WNW,296,7.8,11.0,80,0.00,CLR,,0.00,19.0,WeatherDisplay:10.37,2013-06-28 11:18:00,
2013-06-28 06:23:00,66.1,59.7,29.87,WNW,291,6.4,9.0,80,0.00,CLR,,0.00,21.0,WeatherDisplay:10.37,2013-06-28 11:23:00,
2013-06-28 06:28:00,66.2,59.8,29.87,WNW,288,5.5,10.0,80,0.00,CLR,,0.00,23.0,WeatherDisplay:10.37,2013-06-28 11:28:00,
2013-06-28 06:33:00,66.3,59.9,29.87,WNW,297,5.5,13.0,80,0.00,CLR,,0.00,53.0,WeatherDisplay:10.37,2013-06-28 11:33:00,
2013-06-28 06:38:00,66.5,59.8,29.87,NW,307,3.3,9.2,79,0.00,CLR,,0.00,33.0,WeatherDisplay:10.37,2013-06-28 11:38:00,
2013-06-28 06:43:00,66.8,60.1,29.87,NW,319,8.3,14.0,79,0.00,CLR,,0.00,95.0,WeatherDisplay:10.37,2013-06-28 11:43:00,
2013-06-28 06:48:00,67.0,59.9,29.87,NW,316,5.2,16.1,78,0.00,CLR,,0.00,107.0,WeatherDisplay:10.37,2013-06-28 11:48:00,
2013-06-28 06:53:00,67.3,59.8,29.87,NW,326,9.0,17.3,77,0.00,CLR,,0.00,123.0,WeatherDisplay:10.37,2013-06-28 11:53:00,
2013-06-28 06:58:00,67.6,60.1,29.87,WNW,296,5.6,9.2,77,0.00,CLR,,0.00,135.0,WeatherDisplay:10.37,2013-06-28 11:58:00,
2013-06-28 07:03:00,67.7,59.5,29.86,NNE,14,6.7,13.8,75,0.00,CLR,,0.00,153.0,WeatherDisplay:10.37,2013-06-28 12:03:00,
2013-06-28 07:08:00,67.9,59.7,29.87,NW,325,3.8,11.0,75,0.00,CLR,,0.00,171.0,WeatherDisplay:10.37,2013-06-28 12:08:00,
2013-06-28 07:13:00,68.1,59.5,29.87,WNW,297,7.0,12.0,74,0.00,CLR,,0.00,183.0,WeatherDisplay:10.37,2013-06-28 12:13:00,
2013-06-28 07:19:00,68.3,59.3,29.87,North,351,6.3,11.5,73,0.00,CLR,,0.00,202.0,WeatherDisplay:10.37,2013-06-28 12:19:00,
2013-06-28 07:24:00,68.4,59.0,29.87,NNW,336,8.2,16.1,72,0.00,CLR,,0.00,216.0,WeatherDisplay:10.37,2013-06-28 12:24:00,
2013-06-28 07:29:00,68.6,59.2,29.87,WNW,289,6.8,9.2,72,0.00,CLR,,0.00,230.0,WeatherDisplay:10.37,2013-06-28 12:29:00,
2013-06-28 07:34:00,68.6,58.8,29.87,NNW,329,10.2,18.4,71,0.00,CLR,,0.00,243.0,WeatherDisplay:10.37,2013-06-28 12:34:00,
2013-06-28 07:39:00,68.7,58.9,29.87,NNW,327,5.8,11.0,71,0.00,CLR,,0.00,258.0,WeatherDisplay:10.37,2013-06-28 12:39:00,
2013-06-28 07:44:00,68.8,58.6,29.87,WNW,286,10.3,17.3,70,0.00,CLR,,0.00,269.0,WeatherDisplay:10.37,2013-06-28 12:44:00,
2013-06-28 07:49:00,68.9,58.3,29.87,NNW,346,9.3,19.6,69,0.00,CLR,,0.00,283.0,WeatherDisplay:10.37,2013-06-28 12:49:00,
2013-06-28 07:54:00,69.0,58.4,29.87,NW,316,9.5,21.0,69,0.00,CLR,,0.00,295.0,WeatherDisplay:10.37,2013-06-28 12:54:00,
2013-06-28 07:59:00,69.2,59.0,29.87,NW,313,7.4,11.5,70,0.00,CLR,,0.00,309.0,WeatherDisplay:10.37,2013-06-28 12:59:00,
2013-06-28 08:04:00,69.4,58.8,29.87,WNW,298,6.5,12.0,69,0.00,CLR,,0.00,322.0,WeatherDisplay:10.37,2013-06-28 13:04:00,
2013-06-28 08:09:00,69.5,58.5,29.86,East,88,11.6,18.4,68,0.00,CLR,,0.00,339.0,WeatherDisplay:10.37,2013-06-28 13:09:00,
2013-06-28 08:14:00,69.6,58.2,29.87,WNW,296,10.6,17.3,67,0.00,CLR,,0.00,353.0,WeatherDisplay:10.37,2013-06-28 13:14:00,
2013-06-28 08:19:00,69.7,58.3,29.87,NNW,333,8.0,11.5,67,0.00,CLR,,0.00,367.0,WeatherDisplay:10.37,2013-06-28 13:19:00,
2013-06-28 08:24:00,69.9,58.0,29.87,NW,324,11.1,23.0,66,0.00,CLR,,0.00,383.0,WeatherDisplay:10.37,2013-06-28 13:24:00,
2013-06-28 08:29:00,70.0,58.1,29.87,NNW,346,6.8,14.0,66,0.00,CLR,,0.00,394.0,WeatherDisplay:10.37,2013-06-28 13:29:00,
2013-06-28 08:34:00,70.2,58.3,29.87,WNW,298,10.3,16.0,66,0.00,CLR,,0.00,406.0,WeatherDisplay:10.37,2013-06-28 13:34:00,
2013-06-28 08:39:00,70.6,58.7,29.87,NW,321,6.8,10.4,66,0.00,CLR,,0.00,422.0,WeatherDisplay:10.37,2013-06-28 13:39:00,
2013-06-28 08:44:00,70.8,58.4,29.87,NNW,342,6.7,12.0,65,0.00,CLR,,0.00,436.0,WeatherDisplay:10.37,2013-06-28 13:44:00,
2013-06-28 08:49:00,70.8,58.4,29.87,NNW,331,8.2,24.0,65,0.00,CLR,,0.00,452.0,WeatherDisplay:10.37,2013-06-28 13:49:00,
2013-06-28 08:54:00,70.8,58.4,29.87,WNW,298,10.1,15.0,65,0.00,CLR,,0.00,466.0,WeatherDisplay:10.37,2013-06-28 13:54:00,
2013-06-28 08:59:00,71.0,58.6,29.87,NNW,340,5.2,11.5,65,0.00,CLR,,0.00,473.0,WeatherDisplay:10.37,2013-06-28 13:59:00,
2013-06-28 09:04:00,71.4,59.0,29.87,NNW,331,11.8,17.3,65,0.00,CLR,,0.00,503.0,WeatherDisplay:10.37,2013-06-28 14:04:00,
2013-06-28 09:09:00,71.3,58.5,29.87,WNW,296,9.6,24.2,64,0.00,CLR,,0.00,506.0,WeatherDisplay:10.37,2013-06-28 14:09:00,
2013-06-28 09:14:00,71.2,58.4,29.88,NW,315,13.4,20.0,64,0.00,CLR,,0.00,533.0,WeatherDisplay:10.37,2013-06-28 14:14:00,
2013-06-28 09:19:00,71.1,58.7,29.87,WNW,288,9.4,15.0,65,0.00,CLR,,0.00,227.0,WeatherDisplay:10.37,2013-06-28 14:19:00,
2013-06-28 09:24:00,71.1,59.2,29.87,NW,323,6.9,11.5,66,0.00,CLR,,0.00,592.0,WeatherDisplay:10.37,2013-06-28 14:24:00,
2013-06-28 09:29:00,71.4,59.0,29.87,WNW,293,9.8,19.6,65,0.00,CLR,,0.00,652.0,WeatherDisplay:10.37,2013-06-28 14:29:00,
2013-06-28 09:34:00,72.2,59.8,29.87,West,271,8.7,23.0,65,0.00,CLR,,0.00,677.0,WeatherDisplay:10.37,2013-06-28 14:34:00,
2013-06-28 09:39:00,72.6,59.7,29.87,NW,324,7.5,16.1,64,0.00,CLR,,0.00,793.0,WeatherDisplay:10.37,2013-06-28 14:39:00,
2013-06-28 09:44:00,72.6,59.7,29.87,NNE,28,8.4,16.1,64,0.00,CLR,,0.00,793.0,WeatherDisplay:10.37,2013-06-28 14:44:00,
2013-06-28 09:49:00,71.9,59.5,29.87,NE,38,9.2,15.0,65,0.00,CLR,,0.00,271.0,WeatherDisplay:10.37,2013-06-28 14:49:00,
2013-06-28 09:54:00,71.6,60.1,29.87,WNW,298,8.1,15.0,67,0.00,CLR,,0.00,874.0,WeatherDisplay:10.37,2013-06-28 14:54:00,
2013-06-28 09:59:00,71.9,60.3,29.87,West,277,6.3,11.5,67,0.00,CLR,,0.00,302.0,WeatherDisplay:10.37,2013-06-28 14:59:00,
2013-06-28 10:04:00,71.6,60.1,29.87,WNW,290,4.2,10.4,67,0.00,OVC,,0.00,236.0,WeatherDisplay:10.37,2013-06-28 15:04:00,
2013-06-28 10:09:00,71.6,60.1,29.87,NW,321,12.4,20.0,67,0.00,OVC,,0.00,698.0,WeatherDisplay:10.37,2013-06-28 15:09:00,
2013-06-28 10:14:00,71.6,60.5,29.87,NW,304,7.3,10.4,68,0.00,OVC,,0.00,800.0,WeatherDisplay:10.37,2013-06-28 15:14:00,
2013-06-28 10:19:00,71.9,60.3,29.87,NW,316,7.1,15.0,67,0.00,OVC,,0.00,824.0,WeatherDisplay:10.37,2013-06-28 15:19:00,
2013-06-28 10:24:00,71.9,60.3,29.87,NW,307,10.7,18.0,67,0.00,OVC,,0.00,200.0,WeatherDisplay:10.37,2013-06-28 15:24:00,
2013-06-28 10:29:00,71.7,60.6,29.87,NW,306,8.4,12.0,68,0.00,OVC,,0.00,359.0,WeatherDisplay:10.37,2013-06-28 15:29:00,
2013-06-28 10:34:00,71.5,60.4,29.87,WNW,302,9.7,19.0,68,0.00,OVC,,0.00,313.0,WeatherDisplay:10.37,2013-06-28 15:34:00,
2013-06-28 10:39:00,71.4,60.7,29.87,NNW,342,6.1,10.4,69,0.00,OVC,,0.00,262.0,WeatherDisplay:10.37,2013-06-28 15:39:00,
2013-06-28 10:44:00,71.3,60.6,29.87,NW,325,4.9,8.1,69,0.00,OVC,,0.00,295.0,WeatherDisplay:10.37,2013-06-28 15:44:00,
2013-06-28 10:49:00,71.2,60.5,29.87,NNW,335,11.2,15.0,69,0.00,OVC,,0.00,285.0,WeatherDisplay:10.37,2013-06-28 15:49:00,
2013-06-28 10:54:00,71.1,60.4,29.88,NW,319,9.9,17.0,69,0.00,OVC,,0.00,260.0,WeatherDisplay:10.37,2013-06-28 15:54:00,
2013-06-28 10:59:00,70.9,60.2,29.87,WNW,296,6.8,15.0,69,0.00,OVC,,0.00,295.0,WeatherDisplay:10.37,2013-06-28 15:59:00,
2013-06-28 11:04:00,71.0,60.7,29.88,NNE,28,7.6,13.0,70,0.00,OVC,,0.00,246.0,WeatherDisplay:10.37,2013-06-28 16:04:00,
2013-06-28 11:09:00,71.1,60.8,29.88,NNW,343,9.0,14.0,70,0.00,OVC,,0.00,262.0,WeatherDisplay:10.37,2013-06-28 16:09:00,
2013-06-28 11:14:00,71.1,60.8,29.88,NW,316,5.9,9.2,70,0.00,OVC,,0.00,241.0,WeatherDisplay:10.37,2013-06-28 16:14:00,
2013-06-28 11:19:00,71.2,60.9,29.88,NW,320,6.1,15.0,70,0.00,OVC,,0.00,232.0,WeatherDisplay:10.37,2013-06-28 16:19:00,
2013-06-28 11:24:00,71.1,60.8,29.88,NNW,345,10.3,17.3,70,0.00,OVC,,0.00,257.0,WeatherDisplay:10.37,2013-06-28 16:24:00,
2013-06-28 11:29:00,71.1,61.2,29.88,North,5,4.2,10.4,71,0.00,OVC,,0.00,265.0,WeatherDisplay:10.37,2013-06-28 16:29:00,
2013-06-28 11:34:00,71.2,61.3,29.89,WNW,302,8.7,13.0,71,0.00,OVC,,0.00,274.0,WeatherDisplay:10.37,2013-06-28 16:34:00,
2013-06-28 11:39:00,71.3,61.0,29.89,NW,322,8.2,13.8,70,0.00,OVC,,0.00,313.0,WeatherDisplay:10.37,2013-06-28 16:39:00,
2013-06-28 11:44:00,71.3,61.0,29.88,NW,326,8.7,11.5,70,0.00,OVC,,0.00,200.0,WeatherDisplay:10.37,2013-06-28 16:44:00,
2013-06-28 11:49:00,71.4,61.5,29.89,NNE,16,8.7,14.0,71,0.00,OVC,,0.00,390.0,WeatherDisplay:10.37,2013-06-28 16:49:00,
2013-06-28 11:54:00,71.7,61.8,29.89,NW,320,6.9,12.0,71,0.00,OVC,,0.00,336.0,WeatherDisplay:10.37,2013-06-28 16:54:00,
2013-06-28 11:59:00,72.2,61.5,29.89,North,350,10.0,17.3,69,0.00,OVC,,0.00,388.0,WeatherDisplay:10.37,2013-06-28 16:59:00,
2013-06-28 12:04:00,72.0,61.7,29.89,NW,317,7.6,12.0,70,0.00,OVC,,0.00,318.0,WeatherDisplay:10.37,2013-06-28 17:04:00,
2013-06-28 12:09:00,71.9,61.6,29.89,WNW,285,7.3,11.5,70,0.00,OVC,,0.00,313.0,WeatherDisplay:10.37,2013-06-28 17:09:00,
2013-06-28 12:14:00,72.1,61.8,29.89,WNW,293,7.5,14.0,70,0.00,OVC,,0.00,439.0,WeatherDisplay:10.37,2013-06-28 17:14:00,
2013-06-28 12:19:00,72.5,61.7,29.89,WNW,300,9.1,16.1,69,0.00,OVC,,0.00,496.0,WeatherDisplay:10.37,2013-06-28 17:19:00,
2013-06-28 12:24:00,72.8,61.6,29.89,NW,311,10.2,17.3,68,0.00,OVC,,0.00,496.0,WeatherDisplay:10.37,2013-06-28 17:24:00,
2013-06-28 12:29:00,73.2,62.4,29.89,NW,316,8.2,13.0,69,0.00,OVC,,0.00,513.0,WeatherDisplay:10.37,2013-06-28 17:29:00,
2013-06-28 12:34:00,73.2,62.0,29.89,NW,322,6.8,17.3,68,0.00,OVC,,0.00,332.0,WeatherDisplay:10.37,2013-06-28 17:34:00,
2013-06-28 12:39:00,72.8,62.0,29.90,NNW,339,6.5,11.5,69,0.00,OVC,,0.00,144.0,WeatherDisplay:10.37,2013-06-28 17:39:00,
2013-06-28 12:44:00,72.5,62.2,29.89,NNW,335,5.5,9.2,70,0.00,OVC,,0.00,385.0,WeatherDisplay:10.37,2013-06-28 17:44:00,
2013-06-28 12:49:00,72.8,61.6,29.89,WNW,297,8.8,14.0,68,0.00,OVC,,0.00,401.0,WeatherDisplay:10.37,2013-06-28 17:49:00,
2013-06-28 12:54:00,73.5,62.3,29.89,WNW,296,8.1,15.0,68,0.00,OVC,,0.00,900.0,WeatherDisplay:10.37,2013-06-28 17:54:00,
2013-06-28 12:59:00,74.1,62.9,29.89,NNE,13,6.5,15.0,68,0.00,OVC,,0.00,1088.0,WeatherDisplay:10.37,2013-06-28 17:59:00,
2013-06-28 13:04:00,74.6,62.5,29.89,North,351,7.4,16.0,66,0.00,OVC,,0.00,432.0,WeatherDisplay:10.37,2013-06-28 18:04:00,
2013-06-28 13:09:00,74.6,62.5,29.89,NNW,327,11.3,16.1,66,0.00,OVC,,0.00,469.0,WeatherDisplay:10.37,2013-06-28 18:09:00,
2013-06-28 13:14:00,74.0,61.9,29.89,North,5,8.6,13.0,66,0.00,OVC,,0.00,441.0,WeatherDisplay:10.37,2013-06-28 18:14:00,
2013-06-28 13:19:00,73.8,62.2,29.89,WNW,301,7.9,15.0,67,0.00,OVC,,0.00,513.0,WeatherDisplay:10.37,2013-06-28 18:19:00,
2013-06-28 13:24:00,74.6,62.5,29.89,NW,319,8.1,16.0,66,0.00,OVC,,0.00,427.0,WeatherDisplay:10.37,2013-06-28 18:24:00,
2013-06-28 13:29:00,74.8,62.7,29.89,NNE,21,6.8,11.5,66,0.00,OVC,,0.00,364.0,WeatherDisplay:10.37,2013-06-28 18:29:00,
2013-06-28 13:34:00,74.2,62.1,29.89,WNW,302,9.8,18.4,66,0.00,OVC,,0.00,429.0,WeatherDisplay:10.37,2013-06-28 18:34:00,
2013-06-28 13:39:00,74.3,63.1,29.89,NE,51,6.7,11.0,68,0.00,OVC,,0.00,454.0,WeatherDisplay:10.37,2013-06-28 18:39:00,
2013-06-28 13:44:00,75.0,63.7,29.89,WNW,290,6.1,12.0,68,0.00,OVC,,0.00,1169.0,WeatherDisplay:10.37,2013-06-28 18:44:00,
2013-06-28 13:49:00,75.6,63.4,29.88,NW,322,11.0,15.0,66,0.00,OVC,,0.00,1039.0,WeatherDisplay:10.37,2013-06-28 18:49:00,
2013-06-28 13:54:00,75.4,63.7,29.89,North,355,6.4,11.0,67,0.00,OVC,,0.00,1143.0,WeatherDisplay:10.37,2013-06-28 18:54:00,
2013-06-28 13:59:00,75.3,63.6,29.88,NNW,343,5.2,7.0,67,0.00,OVC,,0.00,1143.0,WeatherDisplay:10.37,2013-06-28 18:59:00,
2013-06-28 14:04:00,75.1,63.0,29.89,NNW,342,9.8,14.0,66,0.00,SCT,,0.00,169.0,WeatherDisplay:10.37,2013-06-28 19:04:00,
2013-06-28 14:09:00,74.2,63.0,29.89,NW,314,8.0,17.3,68,0.00,SCT,,0.00,139.0,WeatherDisplay:10.37,2013-06-28 19:09:00,
2013-06-28 14:14:00,72.6,64.2,29.89,North,360,6.4,10.4,75,0.00,SCT,,0.00,137.0,WeatherDisplay:10.37,2013-06-28 19:14:00,
2013-06-28 14:19:00,71.4,63.8,29.89,NNW,344,6.5,12.0,77,0.00,SCT,,0.00,376.0,WeatherDisplay:10.37,2013-06-28 19:19:00,
2013-06-28 14:24:00,71.9,64.3,29.88,North,350,3.9,8.1,77,0.00,SCT,,0.00,418.0,WeatherDisplay:10.37,2013-06-28 19:24:00,
2013-06-28 14:29:00,73.6,64.4,29.88,NNW,339,6.2,10.4,73,0.00,SCT,,0.00,958.0,WeatherDisplay:10.37,2013-06-28 19:29:00,
2013-06-28 14:34:00,74.6,63.8,29.88,North,355,8.8,17.0,69,0.00,SCT,,0.00,339.0,WeatherDisplay:10.37,2013-06-28 19:34:00,
2013-06-28 14:39:00,74.7,63.4,29.88,NNW,327,8.6,17.0,68,0.00,SCT,,0.00,299.0,WeatherDisplay:10.37,2013-06-28 19:39:00,
2013-06-28 14:44:00,74.6,62.5,29.88,NW,317,10.2,19.6,66,0.00,SCT,,0.00,907.0,WeatherDisplay:10.37,2013-06-28 19:44:00,
2013-06-28 14:49:00,74.9,62.3,29.88,NW,318,13.0,21.0,65,0.00,SCT,,0.00,949.0,WeatherDisplay:10.37,2013-06-28 19:49:00,
2013-06-28 14:54:00,75.2,63.1,29.88,North,5,8.9,19.0,66,0.00,SCT,,0.00,881.0,WeatherDisplay:10.37,2013-06-28 19:54:00,
2013-06-28 15:00:00,75.5,62.9,29.88,NW,321,10.6,16.1,65,0.00,SCT,,0.00,139.0,WeatherDisplay:10.37,2013-06-28 20:00:00,
2013-06-28 15:05:00,75.3,63.6,29.88,North,355,4.4,6.0,67,0.00,BKN,,0.00,951.0,WeatherDisplay:10.37,2013-06-28 20:05:00,
2013-06-28 15:10:00,76.4,63.3,29.87,NW,309,10.2,15.0,64,0.00,BKN,,0.00,842.0,WeatherDisplay:10.37,2013-06-28 20:10:00,
2013-06-28 15:15:00,76.7,62.7,29.87,NNW,340,8.5,12.0,62,0.00,BKN,,0.00,846.0,WeatherDisplay:10.37,2013-06-28 20:15:00,
2013-06-28 15:20:00,76.8,61.9,29.87,WNW,286,8.6,12.7,60,0.00,BKN,,0.00,819.0,WeatherDisplay:10.37,2013-06-28 20:20:00,
2013-06-28 15:25:00,77.0,62.0,29.87,North,355,9.8,17.3,60,0.00,BKN,,0.00,812.0,WeatherDisplay:10.37,2013-06-28 20:25:00,
2013-06-28 15:30:00,77.4,61.9,29.88,NNW,332,8.3,14.0,59,0.00,BKN,,0.00,872.0,WeatherDisplay:10.37,2013-06-28 20:30:00,
2013-06-28 15:35:00,77.7,62.7,29.88,NNW,345,5.9,11.5,60,0.00,BKN,,0.00,998.0,WeatherDisplay:10.37,2013-06-28 20:35:00,
2013-06-28 15:40:00,77.8,61.3,29.88,WNW,286,9.4,18.0,57,0.00,BKN,,0.00,1004.0,WeatherDisplay:10.37,2013-06-28 20:40:00,
2013-06-28 15:45:00,78.0,61.0,29.88,NW,321,7.5,13.0,56,0.00,BKN,,0.00,896.0,WeatherDisplay:10.37,2013-06-28 20:45:00,
2013-06-28 15:50:00,78.4,61.4,29.88,NW,312,8.8,16.0,56,0.00,BKN,,0.00,928.0,WeatherDisplay:10.37,2013-06-28 20:50:00,
2013-06-28 15:55:00,78.4,60.9,29.87,NNW,331,11.9,22.0,55,0.00,BKN,,0.00,925.0,WeatherDisplay:10.37,2013-06-28 20:55:00,
2013-06-28 16:00:00,77.9,60.9,29.88,WNW,301,7.2,15.0,56,0.00,BKN,,0.00,257.0,WeatherDisplay:10.37,2013-06-28 21:00:00,
2013-06-28 16:05:00,77.8,61.3,29.87,North,5,9.4,15.0,57,0.00,BKN,,0.00,227.0,WeatherDisplay:10.37,2013-06-28 21:05:00,
2013-06-28 16:10:00,77.3,60.4,29.87,WNW,300,9.5,12.0,56,0.00,BKN,,0.00,279.0,WeatherDisplay:10.37,2013-06-28 21:10:00,
2013-06-28 16:15:00,76.9,60.5,29.88,WNW,293,8.4,17.3,57,0.00,BKN,,0.00,295.0,WeatherDisplay:10.37,2013-06-28 21:15:00,
2013-06-28 16:20:00,76.9,61.0,29.87,NNW,342,5.9,11.5,58,0.00,BKN,,0.00,439.0,WeatherDisplay:10.37,2013-06-28 21:20:00,
2013-06-28 16:25:00,77.1,61.2,29.87,NNW,327,6.1,9.2,58,0.00,BKN,,0.00,332.0,WeatherDisplay:10.37,2013-06-28 21:25:00,
2013-06-28 16:30:00,77.5,61.6,29.87,WNW,291,7.1,14.0,58,0.00,BKN,,0.00,243.0,WeatherDisplay:10.37,2013-06-28 21:30:00,
2013-06-28 16:35:00,77.2,61.3,29.88,NW,318,8.7,12.0,58,0.00,BKN,,0.00,200.0,WeatherDisplay:10.37,2013-06-28 21:35:00,
2013-06-28 16:40:00,76.6,61.7,29.87,WNW,299,8.1,15.0,60,0.00,BKN,,0.00,148.0,WeatherDisplay:10.37,2013-06-28 21:40:00,
2013-06-28 16:45:00,76.2,61.3,29.87,NNW,334,6.1,12.0,60,0.00,BKN,,0.00,81.0,WeatherDisplay:10.37,2013-06-28 21:45:00,
2013-06-28 16:50:00,75.9,61.9,29.87,NW,313,4.5,7.0,62,0.00,BKN,,0.00,250.0,WeatherDisplay:10.37,2013-06-28 21:50:00,
2013-06-28 16:55:00,76.0,61.6,29.87,NW,306,8.4,14.0,61,0.00,BKN,,0.00,659.0,WeatherDisplay:10.37,2013-06-28 21:55:00,
2013-06-28 17:00:00,76.8,61.4,29.87,North,355,5.9,12.7,59,0.00,BKN,,0.00,605.0,WeatherDisplay:10.37,2013-06-28 22:00:00,
2013-06-28 17:05:00,77.9,61.9,29.87,WNW,300,6.4,12.7,58,0.00,-RA,,0.00,657.0,WeatherDisplay:10.37,2013-06-28 22:05:00,
2013-06-28 17:10:00,78.3,61.8,29.87,NNW,330,6.7,17.0,57,0.00,-RA,,0.00,258.0,WeatherDisplay:10.37,2013-06-28 22:10:00,
2013-06-28 17:15:00,78.0,61.0,29.87,NW,323,8.0,21.0,56,0.00,-RA,-RA,0.00,262.0,WeatherDisplay:10.37,2013-06-28 22:15:00,
2013-06-28 17:20:00,77.7,61.2,29.87,NW,317,12.0,18.0,57,0.00,-RA,-RA,0.00,123.0,WeatherDisplay:10.37,2013-06-28 22:20:00,
2013-06-28 17:25:00,77.0,61.1,29.87,NW,324,8.0,16.0,58,0.00,-RA,-RA,0.00,79.0,WeatherDisplay:10.37,2013-06-28 22:25:00,
2013-06-28 17:30:00,76.2,63.5,29.88,NNW,335,7.0,20.0,65,0.00,-RA,-RA,0.00,114.0,WeatherDisplay:10.37,2013-06-28 22:30:00,
2013-06-28 17:35:00,74.1,63.7,29.88,NNW,336,8.0,20.0,70,0.00,-RA,-RA,0.00,308.0,WeatherDisplay:10.37,2013-06-28 22:35:00,
2013-06-28 17:40:00,72.8,63.6,29.88,NNW,331,6.0,13.0,73,0.00,-RA,-RA,0.00,524.0,WeatherDisplay:10.37,2013-06-28 22:40:00,
2013-06-28 17:45:00,73.2,64.0,29.88,NNW,334,5.0,9.0,73,0.00,-RA,-RA,0.00,527.0,WeatherDisplay:10.37,2013-06-28 22:45:00,
2013-06-28 17:50:00,74.1,63.7,29.87,NNW,334,3.0,12.0,70,0.00,-RA,-RA,0.00,487.0,WeatherDisplay:10.37,2013-06-28 22:50:00,
2013-06-28 17:55:00,74.9,63.2,29.87,NNW,329,6.0,12.0,67,0.00,-RA,-RA,0.00,466.0,WeatherDisplay:10.37,2013-06-28 22:55:00,
2013-06-28 18:00:00,75.5,63.3,29.87,NNW,329,5.0,10.0,66,0.00,-RA,-RA,0.00,445.0,WeatherDisplay:10.37,2013-06-28 23:00:00,
2013-06-28 18:05:00,76.0,63.0,29.87,NNW,328,5.0,12.0,64,0.00,BKN,BKN,0.00,434.0,WeatherDisplay:10.37,2013-06-28 23:05:00,
2013-06-28 18:10:00,76.6,63.1,29.87,NNW,333,3.0,12.0,63,0.00,BKN,BKN,0.00,422.0,WeatherDisplay:10.37,2013-06-28 23:10:00,
2013-06-28 18:15:00,76.7,62.7,29.86,NNW,328,7.0,13.0,62,0.00,BKN,BKN,0.00,176.0,WeatherDisplay:10.37,2013-06-28 23:15:00,
2013-06-28 18:20:00,76.1,62.6,29.86,NW,320,7.0,13.0,63,0.00,BKN,BKN,0.00,123.0,WeatherDisplay:10.37,2013-06-28 23:20:00,
2013-06-28 18:25:00,75.5,62.9,29.87,NW,315,7.0,15.0,65,0.00,BKN,BKN,0.00,98.0,WeatherDisplay:10.37,2013-06-28 23:25:00,
2013-06-28 18:30:00,75.0,62.9,29.87,NNW,328,6.0,13.0,66,0.00,BKN,BKN,0.00,84.0,WeatherDisplay:10.37,2013-06-28 23:30:00,
2013-06-28 18:35:00,74.9,63.2,29.87,NNW,329,5.0,13.0,67,0.00,BKN,BKN,0.00,83.0,WeatherDisplay:10.37,2013-06-28 23:35:00,
2013-06-28 18:40:00,74.9,63.2,29.87,NNW,330,5.0,14.0,67,0.00,BKN,BKN,0.00,327.0,WeatherDisplay:10.37,2013-06-28 23:40:00,
2013-06-28 18:45:00,75.2,63.1,29.87,NW,326,8.0,16.0,66,0.00,BKN,BKN,0.00,316.0,WeatherDisplay:10.37,2013-06-28 23:45:00,
2013-06-28 18:50:00,75.4,63.2,29.87,NW,324,6.0,16.0,66,0.00,BKN,BKN,0.00,171.0,WeatherDisplay:10.37,2013-06-28 23:50:00,
2013-06-28 18:55:00,75.3,63.2,29.87,NNW,336,7.0,17.0,66,0.00,BKN,BKN,0.00,146.0,WeatherDisplay:10.37,2013-06-28 23:55:00,
2013-06-28 19:00:00,75.1,63.0,29.87,NNW,345,6.0,15.0,66,0.00,BKN,BKN,0.00,109.0,WeatherDisplay:10.37,2013-06-29 00:00:00,
2013-06-28 19:05:00,74.8,63.2,29.87,NNW,340,5.0,15.0,67,0.00,BKN,BKN,0.00,53.0,WeatherDisplay:10.37,2013-06-29 00:05:00,
2013-06-28 19:10:00,74.4,64.0,29.88,NNW,343,9.0,15.0,70,0.00,BKN,BKN,0.00,104.0,WeatherDisplay:10.37,2013-06-29 00:10:00,
2013-06-28 19:15:00,73.2,64.0,29.88,NNW,346,6.0,13.0,73,0.00,BKN,BKN,0.00,128.0,WeatherDisplay:10.37,2013-06-29 00:15:00,
2013-06-28 19:20:00,72.2,64.2,29.88,North,359,5.0,12.0,76,0.00,BKN,BKN,0.00,74.0,WeatherDisplay:10.37,2013-06-29 00:20:00,
2013-06-28 19:25:00,71.7,64.1,29.88,North,359,5.0,11.0,77,0.00,BKN,BKN,0.00,44.0,WeatherDisplay:10.37,2013-06-29 00:25:00,
2013-06-28 19:30:00,71.5,63.9,29.88,NNW,346,6.0,12.0,77,0.00,BKN,BKN,0.00,40.0,WeatherDisplay:10.37,2013-06-29 00:30:00,
2013-06-28 19:35:00,71.3,63.7,29.88,NNW,337,6.0,12.0,77,0.00,BKN,BKN,0.00,51.0,WeatherDisplay:10.37,2013-06-29 00:35:00,
2013-06-28 19:40:00,71.3,64.1,29.88,NNW,339,2.0,10.0,78,0.00,BKN,BKN,0.00,72.0,WeatherDisplay:10.37,2013-06-29 00:40:00,
2013-06-28 19:45:00,71.6,63.3,29.88,NNW,338,5.0,16.0,75,0.00,BKN,BKN,0.00,62.0,WeatherDisplay:10.37,2013-06-29 00:45:00,
2013-06-28 19:50:00,71.9,62.4,29.88,NNW,337,5.0,15.0,72,0.00,BKN,BKN,0.00,49.0,WeatherDisplay:10.37,2013-06-29 00:50:00,
2013-06-28 19:55:00,72.2,62.3,29.88,NNW,334,6.0,15.0,71,0.00,BKN,BKN,0.00,116.0,WeatherDisplay:10.37,2013-06-29 00:55:00,
2013-06-28 20:00:00,72.5,61.8,29.88,NNW,338,6.0,20.0,69,0.00,BKN,BKN,0.00,109.0,WeatherDisplay:10.37,2013-06-29 01:00:00,
2013-06-28 20:05:00,72.7,61.9,29.88,North,359,7.0,15.0,69,0.00,FEW,FEW,0.00,100.0,WeatherDisplay:10.37,2013-06-29 01:05:00,
2013-06-28 20:11:00,72.8,62.0,29.88,NW,304,5.7,13.0,69,0.00,FEW,,0.00,84.0,WeatherDisplay:10.37,2013-06-29 01:11:00,
2013-06-28 20:16:00,72.5,62.2,29.88,NW,325,5.6,10.4,70,0.00,FEW,,0.00,33.0,WeatherDisplay:10.37,2013-06-29 01:16:00,
2013-06-28 20:21:00,72.2,62.3,29.89,North,360,2.6,9.2,71,0.00,FEW,,0.00,44.0,WeatherDisplay:10.37,2013-06-29 01:21:00,
2013-06-28 20:26:00,72.0,62.1,29.89,NNW,333,6.9,12.0,71,0.00,FEW,,0.00,46.0,WeatherDisplay:10.37,2013-06-29 01:26:00,
2013-06-28 20:31:00,71.9,62.4,29.89,North,355,3.9,9.2,72,0.00,FEW,,0.00,40.0,WeatherDisplay:10.37,2013-06-29 01:31:00,
2013-06-28 20:36:00,71.7,62.2,29.89,North,10,3.3,15.0,72,0.00,FEW,,0.00,23.0,WeatherDisplay:10.37,2013-06-29 01:36:00,
2013-06-28 20:41:00,71.6,62.5,29.89,WNW,298,4.7,8.1,73,0.00,FEW,,0.00,18.0,WeatherDisplay:10.37,2013-06-29 01:41:00,
2013-06-28 20:46:00,71.4,62.3,29.89,North,5,5.5,10.0,73,0.00,FEW,,0.00,11.0,WeatherDisplay:10.37,2013-06-29 01:46:00,
2013-06-28 20:51:00,71.4,62.3,29.89,NNW,340,3.2,11.0,73,0.00,FEW,,0.00,9.0,WeatherDisplay:10.37,2013-06-29 01:51:00,
2013-06-28 20:56:00,71.3,62.6,29.89,NNE,25,5.1,7.0,74,0.00,FEW,,0.00,9.0,WeatherDisplay:10.37,2013-06-29 01:56:00,
2013-06-28 21:01:00,71.2,62.5,29.89,North,355,5.8,10.4,74,0.00,FEW,,0.00,21.0,WeatherDisplay:10.37,2013-06-29 02:01:00,
2013-06-28 21:06:00,71.2,62.5,29.89,NW,324,2.9,6.9,74,0.00,BKN,,0.00,12.0,WeatherDisplay:10.37,2013-06-29 02:06:00,
2013-06-28 21:11:00,71.1,62.8,29.89,NNW,344,4.8,9.0,75,0.00,BKN,,0.00,5.0,WeatherDisplay:10.37,2013-06-29 02:11:00,
2013-06-28 21:16:00,71.0,62.7,29.89,NW,315,4.2,7.0,75,0.00,BKN,,0.00,0.0,WeatherDisplay:10.37,2013-06-29 02:16:00,
2013-06-28 21:21:00,70.9,62.6,29.89,NNW,331,3.3,7.0,75,0.00,BKN,,0.00,0.0,WeatherDisplay:10.37,2013-06-29 02:21:00,
2013-06-28 21:26:00,70.7,62.8,29.89,WNW,298,3.2,8.1,76,0.00,BKN,,0.00,0.0,WeatherDisplay:10.37,2013-06-29 02:26:00,
2013-06-28 21:31:00,70.6,62.7,29.89,WNW,284,6.5,10.4,76,0.00,BKN,,0.00,0.0,WeatherDisplay:10.37,2013-06-29 02:31:00,
2013-06-28 21:36:00,70.3,62.7,29.89,WNW,286,5.6,10.0,77,0.00,BKN,,0.00,0.0,WeatherDisplay:10.37,2013-06-29 02:36:00,
2013-06-28 21:41:00,70.1,62.6,29.89,NW,320,5.2,9.2,77,0.00,BKN,,0.00,0.0,WeatherDisplay:10.37,2013-06-29 02:41:00,
2013-06-28 21:46:00,69.9,62.7,29.89,NNW,348,3.6,6.9,78,0.00,BKN,,0.00,0.0,WeatherDisplay:10.37,2013-06-29 02:46:00,
2013-06-28 21:51:00,69.7,62.5,29.89,NW,321,3.9,6.0,78,0.00,BKN,,0.00,0.0,WeatherDisplay:10.37,2013-06-29 02:51:00,
2013-06-28 21:56:00,69.6,62.4,29.89,NW,313,3.8,8.1,78,0.00,BKN,,0.00,0.0,WeatherDisplay:10.37,2013-06-29 02:56:00,
2013-06-28 22:01:00,69.6,62.4,29.89,NNW,342,3.9,7.0,78,0.00,BKN,,0.00,0.0,WeatherDisplay:10.37,2013-06-29 03:01:00,
2013-06-28 22:06:00,69.4,62.2,29.89,NW,304,1.7,4.0,78,0.00,OVC,,0.00,0.0,WeatherDisplay:10.37,2013-06-29 03:06:00,
2013-06-28 22:11:00,69.4,62.2,29.89,North,349,4.0,10.4,78,0.00,OVC,,0.00,0.0,WeatherDisplay:10.37,2013-06-29 03:11:00,
2013-06-28 22:16:00,69.4,61.9,29.89,NNW,345,3.8,6.0,77,0.00,OVC,,0.00,0.0,WeatherDisplay:10.37,2013-06-29 03:16:00,
2013-06-28 22:21:00,69.3,61.8,29.89,NW,315,4.2,9.2,77,0.00,OVC,,0.00,0.0,WeatherDisplay:10.37,2013-06-29 03:21:00,
2013-06-28 22:26:00,69.2,61.7,29.89,North,355,3.5,9.0,77,0.00,OVC,,0.00,0.0,WeatherDisplay:10.37,2013-06-29 03:26:00,
2013-06-28 22:31:00,69.1,61.6,29.89,NNW,329,5.1,9.2,77,0.00,OVC,,0.00,0.0,WeatherDisplay:10.37,2013-06-29 03:31:00,
2013-06-28 22:36:00,69.0,61.5,29.89,NNW,342,3.2,6.0,77,0.00,OVC,,0.00,0.0,WeatherDisplay:10.37,2013-06-29 03:36:00,
2013-06-28 22:41:00,68.9,61.4,29.89,North,350,2.6,4.6,77,0.00,OVC,,0.00,0.0,WeatherDisplay:10.37,2013-06-29 03:41:00,
2013-06-28 22:46:00,68.6,61.5,29.89,NNW,337,1.7,6.0,78,0.00,OVC,,0.00,0.0,WeatherDisplay:10.37,2013-06-29 03:46:00,
2013-06-28 22:51:00,68.5,61.7,29.89,NNW,337,3.9,8.0,79,0.00,OVC,,0.00,0.0,WeatherDisplay:10.37,2013-06-29 03:51:00,
2013-06-28 22:56:00,68.4,61.6,29.89,North,5,0.7,4.0,79,0.00,OVC,,0.00,0.0,WeatherDisplay:10.37,2013-06-29 03:56:00,
2013-06-28 23:01:00,68.3,61.5,29.88,NW,323,2.1,5.8,79,0.00,OVC,,0.00,0.0,WeatherDisplay:10.37,2013-06-29 04:01:00,
2013-06-28 23:03:00,68.2,61.4,29.89,North,360,2.2,7.0,79,0.00,OVC,,0.00,0.0,WeatherDisplay:10.37,2013-06-29 04:03:00,
2013-06-28 23:04:00,68.2,61.4,29.88,North,11,4.9,9.2,79,0.00,OVC,,0.00,0.0,WeatherDisplay:10.37,2013-06-29 04:04:00,
2013-06-28 23:06:00,68.1,61.3,29.88,NW,315,2.1,4.0,79,0.00,OVC,,0.00,0.0,WeatherDisplay:10.37,2013-06-29 04:06:00,
2013-06-28 23:07:00,68.1,61.3,29.88,NNW,337,2.0,4.0,79,0.00,OVC,,0.00,0.0,WeatherDisplay:10.37,2013-06-29 04:07:00,
2013-06-28 23:12:00,68.0,61.6,29.88,NNE,16,2.8,5.0,80,0.00,OVC,,0.00,0.0,WeatherDisplay:10.37,2013-06-29 04:12:00,
2013-06-28 23:17:00,67.9,61.5,29.88,North,350,4.5,8.1,80,0.00,OVC,,0.00,0.0,WeatherDisplay:10.37,2013-06-29 04:17:00,
2013-06-28 23:22:00,67.9,61.5,29.88,NW,322,3.0,6.9,80,0.00,OVC,,0.00,0.0,WeatherDisplay:10.37,2013-06-29 04:22:00,
2013-06-28 23:27:00,67.9,61.5,29.88,NNW,339,5.1,7.0,80,0.00,OVC,,0.00,0.0,WeatherDisplay:10.37,2013-06-29 04:27:00,
2013-06-28 23:32:00,67.9,61.5,29.88,NW,306,2.7,8.1,80,0.00,OVC,,0.00,0.0,WeatherDisplay:10.37,2013-06-29 04:32:00,
2013-06-28 23:37:00,67.9,61.5,29.88,NNW,336,2.8,8.0,80,0.00,OVC,,0.00,0.0,WeatherDisplay:10.37,2013-06-29 04:37:00,
2013-06-28 23:42:00,67.9,61.5,29.88,NW,326,3.9,6.0,80,0.00,OVC,,0.00,0.0,WeatherDisplay:10.37,2013-06-29 04:42:00,
2013-06-28 23:47:00,67.9,61.5,29.89,NNW,339,3.9,8.1,80,0.00,OVC,,0.00,0.0,WeatherDisplay:10.37,2013-06-29 04:47:00,
2013-06-28 23:52:00,67.8,61.4,29.88,NW,323,6.6,9.2,80,0.00,OVC,,0.00,0.0,WeatherDisplay:10.37,2013-06-29 04:52:00,
2013-06-28 23:57:00,67.7,61.3,29.88,NNW,331,3.6,6.0,80,0.00,OVC,,0.00,0.0,WeatherDisplay:10.37,2013-06-29 04:57:00,